createdAt,value
2017-01-02T00:00:18.155Z,2.72
2017-01-02T00:01:17.794Z,2.85
2017-01-02T00:02:18.190Z,2.86
2017-01-02T00:03:17.793Z,2.86
2017-01-02T00:04:17.806Z,2.87
2017-01-02T00:05:17.811Z,2.92
2017-01-02T00:06:17.823Z,3.05
2017-01-02T00:07:17.846Z,3.01
2017-01-02T00:08:17.848Z,3.21
2017-01-02T00:09:17.459Z,3.22
2017-01-02T00:10:17.867Z,3.25
2017-01-02T00:11:17.479Z,3.34
2017-01-02T00:12:18.297Z,3.36
2017-01-02T00:13:17.904Z,3.4
2017-01-02T00:14:18.313Z,3.29
2017-01-02T00:15:17.929Z,3.28
2017-01-02T00:16:17.939Z,3.32
2017-01-02T00:17:17.975Z,3.32
2017-01-02T00:18:17.965Z,3.29
2017-01-02T00:19:18.023Z,3.32
2017-01-02T00:20:17.586Z,3.22
2017-01-02T00:21:17.597Z,3.19
2017-01-02T00:22:18.014Z,3.08
2017-01-02T00:23:18.024Z,3.08
2017-01-02T00:24:18.441Z,3.04
2017-01-02T00:25:18.047Z,3.01
2017-01-02T00:26:18.053Z,2.93
2017-01-02T00:27:18.063Z,2.93
2017-01-02T00:28:18.475Z,2.69
2017-01-02T00:29:18.139Z,2.69
2017-01-02T00:30:18.099Z,2.72
2017-01-02T00:31:17.717Z,2.83
2017-01-02T00:32:18.130Z,2.93
2017-01-02T00:33:18.140Z,2.83
2017-01-02T00:34:17.750Z,2.65
2017-01-02T00:35:17.762Z,2.54
2017-01-02T00:36:18.184Z,2.42
2017-01-02T00:37:18.582Z,2.32
2017-01-02T00:38:18.196Z,2.31
2017-01-02T00:39:18.614Z,2.39
2017-01-02T00:40:18.218Z,2.53
2017-01-02T00:41:18.232Z,2.42
2017-01-02T00:42:18.642Z,2.29
2017-01-02T00:43:18.249Z,2.42
2017-01-02T00:44:17.865Z,2.44
2017-01-02T00:45:17.895Z,2.26
2017-01-02T00:46:18.285Z,2.26
2017-01-02T00:47:18.297Z,2.15
2017-01-02T00:48:17.908Z,2.14
2017-01-02T00:49:18.322Z,2.18
2017-01-02T00:50:17.935Z,2.15
2017-01-02T00:51:17.946Z,2.2
2017-01-02T00:52:18.757Z,2.2
2017-01-02T00:53:17.970Z,2.28
2017-01-02T00:54:17.983Z,2.22
2017-01-02T00:55:17.988Z,2.25
2017-01-02T00:56:18.007Z,2.29
2017-01-02T00:57:18.808Z,2.38
2017-01-02T00:58:18.420Z,2.43
2017-01-02T00:59:18.442Z,2.33
2017-01-02T01:00:18.049Z,2.26
2017-01-02T01:01:18.856Z,2.22
2017-01-02T01:02:18.068Z,2.25
2017-01-02T01:03:18.480Z,2.25
2017-01-02T01:04:18.503Z,2.07
2017-01-02T01:05:18.103Z,2.07
2017-01-02T01:06:18.510Z,2
2017-01-02T01:07:18.522Z,1.91
2017-01-02T01:08:18.134Z,2.04
2017-01-02T01:09:18.149Z,2.13
2017-01-02T01:10:18.555Z,2.11
2017-01-02T01:11:18.569Z,2.04
2017-01-02T01:12:18.578Z,2.06
2017-01-02T01:13:18.600Z,2.06
2017-01-02T01:14:18.999Z,2.06
2017-01-02T01:15:18.211Z,2.02
2017-01-02T01:16:18.621Z,2.06
2017-01-02T01:17:18.265Z,2.04
2017-01-02T01:18:18.651Z,1.87
2017-01-02T01:19:18.651Z,1.89
2017-01-02T01:20:18.672Z,1.84
2017-01-02T01:21:19.092Z,1.74
2017-01-02T01:22:18.685Z,1.8
2017-01-02T01:23:18.697Z,1.89
2017-01-02T01:24:18.707Z,1.84
2017-01-02T01:25:18.722Z,1.67
2017-01-02T01:26:18.728Z,1.71
2017-01-02T01:27:19.146Z,1.74
2017-01-02T01:28:19.157Z,1.78
2017-01-02T01:29:18.795Z,1.8
2017-01-02T01:30:18.773Z,1.66
2017-01-02T01:31:18.788Z,1.67
2017-01-02T01:32:18.398Z,1.63
2017-01-02T01:33:18.810Z,1.73
2017-01-02T01:34:19.215Z,1.71
2017-01-02T01:35:18.452Z,1.78
2017-01-02T01:36:18.456Z,1.7
2017-01-02T01:37:18.850Z,1.62
2017-01-02T01:38:18.859Z,1.76
2017-01-02T01:39:18.873Z,1.49
2017-01-02T01:40:18.480Z,1.32
2017-01-02T01:41:18.494Z,1.37
2017-01-02T01:42:18.906Z,1.45
2017-01-02T01:43:19.316Z,1.55
2017-01-02T01:44:19.322Z,1.48
2017-01-02T01:45:18.533Z,1.48
2017-01-02T01:46:18.943Z,1.38
2017-01-02T01:47:18.556Z,1.52
2017-01-02T01:48:18.565Z,1.45
2017-01-02T01:49:18.973Z,1.45
2017-01-02T01:50:18.989Z,1.53
2017-01-02T01:51:18.607Z,1.5
2017-01-02T01:52:19.005Z,1.49
2017-01-02T01:53:19.417Z,1.52
2017-01-02T01:54:19.030Z,1.45
2017-01-02T01:55:19.047Z,1.49
2017-01-02T01:56:19.450Z,1.48
2017-01-02T01:57:19.067Z,1.52
2017-01-02T01:58:19.069Z,1.6
2017-01-02T01:59:19.087Z,1.6
2017-01-02T02:00:19.090Z,1.66
2017-01-02T02:01:19.501Z,1.66
2017-01-02T02:02:18.716Z,1.58
2017-01-02T02:03:19.529Z,1.67
2017-01-02T02:04:19.533Z,1.66
2017-01-02T02:05:18.750Z,1.71
2017-01-02T02:06:19.555Z,1.68
2017-01-02T02:07:19.569Z,1.63
2017-01-02T02:08:19.577Z,1.66
2017-01-02T02:09:19.592Z,1.59
2017-01-02T02:10:19.201Z,1.49
2017-01-02T02:11:19.212Z,1.49
2017-01-02T02:12:19.627Z,1.5
2017-01-02T02:13:19.233Z,1.68
2017-01-02T02:14:19.639Z,1.7
2017-01-02T02:15:18.868Z,1.71
2017-01-02T02:16:19.262Z,1.77
2017-01-02T02:17:18.905Z,1.88
2017-01-02T02:18:19.308Z,1.91
2017-01-02T02:19:19.296Z,1.94
2017-01-02T02:20:19.308Z,1.97
2017-01-02T02:21:19.720Z,1.74
2017-01-02T02:22:18.929Z,1.91
2017-01-02T02:23:19.751Z,1.8
2017-01-02T02:24:18.959Z,1.78
2017-01-02T02:25:19.773Z,1.91
2017-01-02T02:26:18.983Z,1.76
2017-01-02T02:27:19.391Z,1.88
2017-01-02T02:28:19.400Z,1.73
2017-01-02T02:29:19.440Z,1.78
2017-01-02T02:30:19.019Z,1.84
2017-01-02T02:31:19.432Z,1.87
2017-01-02T02:32:19.437Z,1.85
2017-01-02T02:33:19.458Z,1.85
2017-01-02T02:34:19.860Z,1.94
2017-01-02T02:35:19.470Z,2.02
2017-01-02T02:36:19.880Z,2.1
2017-01-02T02:37:19.125Z,2.08
2017-01-02T02:38:19.515Z,2.13
2017-01-02T02:39:19.514Z,2.17
2017-01-02T02:40:19.524Z,2.29
2017-01-02T02:41:19.934Z,2.29
2017-01-02T02:42:19.558Z,2.38
2017-01-02T02:43:19.570Z,2.43
2017-01-02T02:44:19.568Z,2.43
2017-01-02T02:45:19.178Z,2.54
2017-01-02T02:46:19.415Z,2.47
2017-01-02T02:47:19.200Z,2.53
2017-01-02T02:48:20.012Z,2.6
2017-01-02T02:49:19.222Z,2.56
2017-01-02T02:50:19.635Z,2.54
2017-01-02T02:51:20.043Z,2.67
2017-01-02T02:52:19.271Z,2.69
2017-01-02T02:53:20.067Z,2.8
2017-01-02T02:54:20.080Z,2.79
2017-01-02T02:55:19.295Z,2.92
2017-01-02T02:56:19.701Z,2.97
2017-01-02T02:57:19.314Z,2.9
2017-01-02T02:58:19.325Z,2.92
2017-01-02T02:59:19.742Z,2.92
2017-01-02T03:00:19.778Z,2.9
2017-01-02T03:01:20.159Z,2.89
2017-01-02T03:02:20.170Z,2.8
2017-01-02T03:03:19.781Z,2.68
2017-01-02T03:04:19.794Z,2.5
2017-01-02T03:05:19.403Z,2.53
2017-01-02T03:06:19.419Z,2.29
2017-01-02T03:07:20.241Z,2.32
2017-01-02T03:08:19.454Z,2.42
2017-01-02T03:09:19.855Z,2.43
2017-01-02T03:10:19.461Z,2.32
2017-01-02T03:11:19.900Z,2.22
2017-01-02T03:12:19.485Z,2.29
2017-01-02T03:13:19.494Z,2.15
2017-01-02T03:14:19.909Z,1.95
2017-01-02T03:15:20.318Z,2.07
2017-01-02T03:16:19.933Z,1.97
2017-01-02T03:17:19.941Z,1.88
2017-01-02T03:18:20.353Z,1.87
2017-01-02T03:19:19.567Z,1.95
2017-01-02T03:20:19.977Z,2.04
2017-01-02T03:21:20.409Z,1.95
2017-01-02T03:22:20.401Z,2.08
2017-01-02T03:23:20.009Z,2.17
2017-01-02T03:24:20.420Z,2.11
2017-01-02T03:25:20.035Z,2.06
2017-01-02T03:26:20.445Z,2.13
2017-01-02T03:27:20.056Z,2.04
2017-01-02T03:28:20.065Z,2.02
2017-01-02T03:29:20.078Z,2.13
2017-01-02T03:30:19.689Z,2.08
2017-01-02T03:31:20.100Z,2.07
2017-01-02T03:32:20.108Z,1.97
2017-01-02T03:33:19.723Z,2.08
2017-01-02T03:34:20.129Z,2.06
2017-01-02T03:35:19.762Z,2
2017-01-02T03:36:20.153Z,1.95
2017-01-02T03:37:20.174Z,1.87
2017-01-02T03:38:20.579Z,1.95
2017-01-02T03:39:20.588Z,1.89
2017-01-02T03:40:20.203Z,1.78
2017-01-02T03:41:20.646Z,1.71
2017-01-02T03:42:20.628Z,1.77
2017-01-02T03:43:20.239Z,1.62
2017-01-02T03:44:20.241Z,1.62
2017-01-02T03:45:19.852Z,1.58
2017-01-02T03:46:20.664Z,1.59
2017-01-02T03:47:20.693Z,1.49
2017-01-02T03:48:20.288Z,1.53
2017-01-02T03:49:20.296Z,1.52
2017-01-02T03:50:20.310Z,1.44
2017-01-02T03:51:19.921Z,1.44
2017-01-02T03:52:20.329Z,1.45
2017-01-02T03:53:20.339Z,1.45
2017-01-02T03:54:19.952Z,1.42
2017-01-02T03:55:20.360Z,1.49
2017-01-02T03:56:20.771Z,1.37
2017-01-02T03:57:20.380Z,1.28
2017-01-02T03:58:20.797Z,1.26
2017-01-02T03:59:20.004Z,1.28
2017-01-02T04:00:20.828Z,1.3
2017-01-02T04:01:20.441Z,1.28
2017-01-02T04:02:20.072Z,1.42
2017-01-02T04:03:20.845Z,1.52
2017-01-02T04:04:20.458Z,1.58
2017-01-02T04:05:20.069Z,1.53
2017-01-02T04:06:20.876Z,1.52
2017-01-02T04:07:20.088Z,1.37
2017-01-02T04:08:20.506Z,1.32
2017-01-02T04:09:20.509Z,1.41
2017-01-02T04:10:20.519Z,1.48
2017-01-02T04:11:20.130Z,1.59
2017-01-02T04:12:20.959Z,1.58
2017-01-02T04:13:20.554Z,1.48
2017-01-02T04:14:20.560Z,1.31
2017-01-02T04:15:20.574Z,1.19
2017-01-02T04:16:20.980Z,1.23
2017-01-02T04:17:20.196Z,1.22
2017-01-02T04:18:20.603Z,1.06
2017-01-02T04:19:21.014Z,1.16
2017-01-02T04:20:20.223Z,1.06
2017-01-02T04:21:20.234Z,1.14
2017-01-02T04:22:20.651Z,1.2
2017-01-02T04:23:20.656Z,1.2
2017-01-02T04:24:21.096Z,1.26
2017-01-02T04:25:20.274Z,1.34
2017-01-02T04:26:20.289Z,1.22
2017-01-02T04:27:21.093Z,1.28
2017-01-02T04:28:20.707Z,1.12
2017-01-02T04:29:21.112Z,1.08
2017-01-02T04:30:21.127Z,1.06
2017-01-02T04:31:20.745Z,0.98
2017-01-02T04:32:21.158Z,0.83
2017-01-02T04:33:20.364Z,0.96
2017-01-02T04:34:20.798Z,0.87
2017-01-02T04:35:20.380Z,0.94
2017-01-02T04:36:20.388Z,0.94
2017-01-02T04:37:20.403Z,0.95
2017-01-02T04:38:21.214Z,0.99
2017-01-02T04:39:21.245Z,1.02
2017-01-02T04:40:20.830Z,1.06
2017-01-02T04:41:20.846Z,0.96
2017-01-02T04:42:20.849Z,0.91
2017-01-02T04:43:20.486Z,0.88
2017-01-02T04:44:20.475Z,0.91
2017-01-02T04:45:20.881Z,0.92
2017-01-02T04:46:20.906Z,0.92
2017-01-02T04:47:20.925Z,0.88
2017-01-02T04:48:20.916Z,0.94
2017-01-02T04:49:20.923Z,0.98
2017-01-02T04:50:21.334Z,1.02
2017-01-02T04:51:20.555Z,1.08
2017-01-02T04:52:20.554Z,1.04
2017-01-02T04:53:20.973Z,1.02
2017-01-02T04:54:20.973Z,0.95
2017-01-02T04:55:20.596Z,0.95
2017-01-02T04:56:20.596Z,0.86
2017-01-02T04:57:20.607Z,0.91
2017-01-02T04:58:21.009Z,0.84
2017-01-02T04:59:20.626Z,0.91
2017-01-02T05:00:21.056Z,0.91
2017-01-02T05:01:21.443Z,0.8
2017-01-02T05:02:21.055Z,0.86
2017-01-02T05:03:21.061Z,0.96
2017-01-02T05:04:21.472Z,0.84
2017-01-02T05:05:21.092Z,0.92
2017-01-02T05:06:21.095Z,0.95
2017-01-02T05:07:20.707Z,0.88
2017-01-02T05:08:20.716Z,0.78
2017-01-02T05:09:20.727Z,0.8
2017-01-02T05:10:21.529Z,0.92
2017-01-02T05:11:20.743Z,0.78
2017-01-02T05:12:20.754Z,0.86
2017-01-02T05:13:21.161Z,0.74
2017-01-02T05:14:21.172Z,0.8
2017-01-02T05:15:21.181Z,0.8
2017-01-02T05:16:20.792Z,0.65
2017-01-02T05:17:21.209Z,0.78
2017-01-02T05:18:20.811Z,0.74
2017-01-02T05:19:21.226Z,0.7
2017-01-02T05:20:21.234Z,0.76
2017-01-02T05:21:20.856Z,0.77
2017-01-02T05:22:21.252Z,0.73
2017-01-02T05:23:21.263Z,0.56
2017-01-02T05:24:20.877Z,0.5
2017-01-02T05:25:20.880Z,0.65
2017-01-02T05:26:21.313Z,0.76
2017-01-02T05:27:21.726Z,0.77
2017-01-02T05:28:21.717Z,0.81
2017-01-02T05:29:20.925Z,0.76
2017-01-02T05:30:21.336Z,0.91
2017-01-02T05:31:21.743Z,0.65
2017-01-02T05:32:21.768Z,0.6
2017-01-02T05:33:21.380Z,0.69
2017-01-02T05:34:21.370Z,0.8
2017-01-02T05:35:21.780Z,0.7
2017-01-02T05:36:21.392Z,0.52
2017-01-02T05:37:21.005Z,0.46
2017-01-02T05:38:21.405Z,0.5
2017-01-02T05:39:21.446Z,0.56
2017-01-02T05:40:21.829Z,0.46
2017-01-02T05:41:21.441Z,0.56
2017-01-02T05:42:21.450Z,0.47
2017-01-02T05:43:21.463Z,0.4
2017-01-02T05:44:21.476Z,0.25
2017-01-02T05:45:21.487Z,0.25
2017-01-02T05:46:21.489Z,0.31
2017-01-02T05:47:21.510Z,0.46
2017-01-02T05:48:21.910Z,0.52
2017-01-02T05:49:21.120Z,0.6
2017-01-02T05:50:21.545Z,0.46
2017-01-02T05:51:21.573Z,0.34
2017-01-02T05:52:21.153Z,0.39
2017-01-02T05:53:21.568Z,0.44
2017-01-02T05:54:21.574Z,0.59
2017-01-02T05:55:21.580Z,0.5
2017-01-02T05:56:21.592Z,0.5
2017-01-02T05:57:21.601Z,0.49
2017-01-02T05:58:22.007Z,0.46
2017-01-02T05:59:21.621Z,0.44
2017-01-02T06:00:22.043Z,0.34
2017-01-02T06:01:21.242Z,0.26
2017-01-02T06:02:21.649Z,0.28
2017-01-02T06:03:21.260Z,0.4
2017-01-02T06:04:21.669Z,0.4
2017-01-02T06:05:22.076Z,0.46
2017-01-02T06:06:21.690Z,0.34
2017-01-02T06:07:21.299Z,0.36
2017-01-02T06:08:21.312Z,0.29
2017-01-02T06:09:21.320Z,0.29
2017-01-02T06:10:22.145Z,0.25
2017-01-02T06:11:21.734Z,0.25
2017-01-02T06:12:21.747Z,0.29
2017-01-02T06:13:21.769Z,0.39
2017-01-02T06:14:22.175Z,0.25
2017-01-02T06:15:22.171Z,0.34
2017-01-02T06:16:21.786Z,0.32
2017-01-02T06:17:21.415Z,0.34
2017-01-02T06:18:21.426Z,0.39
2017-01-02T06:19:22.216Z,0.26
2017-01-02T06:20:21.821Z,0.34
2017-01-02T06:21:21.859Z,0.34
2017-01-02T06:22:22.248Z,0.41
2017-01-02T06:23:21.854Z,0.58
2017-01-02T06:24:22.279Z,0.44
2017-01-02T06:25:21.491Z,0.44
2017-01-02T06:26:21.503Z,0.49
2017-01-02T06:27:22.292Z,0.6
2017-01-02T06:28:21.904Z,0.5
2017-01-02T06:29:21.916Z,0.41
2017-01-02T06:30:21.926Z,0.52
2017-01-02T06:31:21.547Z,0.55
2017-01-02T06:32:21.557Z,0.41
2017-01-02T06:33:22.354Z,0.28
2017-01-02T06:34:22.361Z,0.36
2017-01-02T06:35:22.369Z,0.32
2017-01-02T06:36:21.982Z,0.29
2017-01-02T06:37:21.592Z,0.31
2017-01-02T06:38:21.608Z,0.36
2017-01-02T06:39:22.021Z,0.37
2017-01-02T06:40:22.024Z,0.55
2017-01-02T06:41:22.026Z,0.52
2017-01-02T06:42:22.042Z,0.44
2017-01-02T06:43:22.053Z,0.39
2017-01-02T06:44:22.462Z,0.4
2017-01-02T06:45:21.679Z,0.37
2017-01-02T06:46:22.076Z,0.47
2017-01-02T06:47:21.699Z,0.44
2017-01-02T06:48:22.099Z,0.49
2017-01-02T06:49:21.708Z,0.46
2017-01-02T06:50:22.516Z,0.31
2017-01-02T06:51:21.729Z,0.25
2017-01-02T06:52:22.138Z,0.39
2017-01-02T06:53:22.557Z,0.36
2017-01-02T06:54:22.160Z,0.43
2017-01-02T06:55:22.166Z,0.49
2017-01-02T06:56:22.208Z,0.39
2017-01-02T06:57:22.193Z,0.39
2017-01-02T06:58:22.595Z,0.49
2017-01-02T06:59:21.809Z,0.5
2017-01-02T07:00:22.619Z,0.52
2017-01-02T07:01:21.831Z,0.58
2017-01-02T07:02:22.244Z,0.63
2017-01-02T07:03:22.246Z,0.6
2017-01-02T07:04:21.852Z,0.5
2017-01-02T07:05:22.267Z,0.55
2017-01-02T07:06:21.880Z,0.62
2017-01-02T07:07:21.885Z,0.65
2017-01-02T07:08:22.291Z,0.69
2017-01-02T07:09:22.301Z,0.66
2017-01-02T07:10:22.315Z,0.66
2017-01-02T07:11:22.721Z,0.74
2017-01-02T07:12:22.732Z,0.69
2017-01-02T07:13:22.347Z,0.8
2017-01-02T07:14:22.752Z,0.92
2017-01-02T07:15:22.358Z,0.95
2017-01-02T07:16:22.375Z,0.96
2017-01-02T07:17:22.783Z,0.94
2017-01-02T07:18:21.996Z,0.96
2017-01-02T07:19:22.004Z,1.04
2017-01-02T07:20:22.416Z,1.04
2017-01-02T07:21:22.027Z,1.17
2017-01-02T07:22:22.432Z,1.23
2017-01-02T07:23:22.041Z,1.24
2017-01-02T07:24:22.474Z,1.26
2017-01-02T07:25:22.484Z,1.16
2017-01-02T07:26:22.870Z,1.3
2017-01-02T07:27:22.086Z,1.3
2017-01-02T07:28:22.899Z,1.34
2017-01-02T07:29:22.499Z,1.24
2017-01-02T07:30:22.512Z,1.23
2017-01-02T07:31:22.934Z,1.31
2017-01-02T07:32:22.549Z,1.26
2017-01-02T07:33:22.943Z,1.3
2017-01-02T07:34:22.155Z,1.42
2017-01-02T07:35:22.566Z,1.4
2017-01-02T07:36:22.973Z,1.4
2017-01-02T07:37:22.583Z,1.32
2017-01-02T07:38:22.193Z,1.26
2017-01-02T07:39:22.614Z,1.31
2017-01-02T07:40:22.618Z,1.31
2017-01-02T07:41:22.227Z,1.19
2017-01-02T07:42:22.633Z,1.26
2017-01-02T07:43:23.044Z,1.3
2017-01-02T07:44:22.256Z,1.26
2017-01-02T07:45:23.073Z,1.3
2017-01-02T07:46:22.679Z,1.41
2017-01-02T07:47:22.687Z,1.44
2017-01-02T07:48:22.296Z,1.49
2017-01-02T07:49:22.705Z,1.48
2017-01-02T07:50:22.722Z,1.44
2017-01-02T07:51:23.137Z,1.58
2017-01-02T07:52:22.339Z,1.53
2017-01-02T07:53:22.748Z,1.67
2017-01-02T07:54:22.762Z,1.67
2017-01-02T07:55:22.768Z,1.63
2017-01-02T07:56:22.382Z,1.63
2017-01-02T07:57:22.795Z,1.62
2017-01-02T07:58:22.797Z,1.66
2017-01-02T07:59:23.210Z,1.76
2017-01-02T08:00:22.424Z,1.71
2017-01-02T08:01:22.437Z,1.48
2017-01-02T08:02:23.247Z,1.49
2017-01-02T08:03:22.849Z,1.52
2017-01-02T08:04:22.865Z,1.53
2017-01-02T08:05:22.882Z,1.52
2017-01-02T08:06:22.885Z,1.5
2017-01-02T08:07:23.294Z,1.63
2017-01-02T08:08:23.301Z,1.53
2017-01-02T08:09:22.519Z,1.41
2017-01-02T08:10:22.931Z,1.41
2017-01-02T08:11:23.335Z,1.38
2017-01-02T08:12:23.344Z,1.44
2017-01-02T08:13:23.356Z,1.49
2017-01-02T08:14:22.966Z,1.34
2017-01-02T08:15:22.976Z,1.31
2017-01-02T08:16:22.588Z,1.28
2017-01-02T08:17:23.442Z,1.5
2017-01-02T08:18:23.007Z,1.56
2017-01-02T08:19:22.619Z,1.58
2017-01-02T08:20:22.632Z,1.48
2017-01-02T08:21:23.042Z,1.45
2017-01-02T08:22:23.056Z,1.41
2017-01-02T08:23:23.460Z,1.48
2017-01-02T08:24:22.708Z,1.49
2017-01-02T08:25:23.083Z,1.56
2017-01-02T08:26:23.100Z,1.44
2017-01-02T08:27:23.105Z,1.44
2017-01-02T08:28:23.512Z,1.44
2017-01-02T08:29:23.527Z,1.44
2017-01-02T08:30:23.131Z,1.5
2017-01-02T08:31:23.149Z,1.4
2017-01-02T08:32:23.557Z,1.26
2017-01-02T08:33:22.774Z,1.42
2017-01-02T08:34:23.180Z,1.49
2017-01-02T08:35:23.190Z,1.48
2017-01-02T08:36:23.200Z,1.6
2017-01-02T08:37:23.207Z,1.63
2017-01-02T08:38:23.223Z,1.62
2017-01-02T08:39:22.830Z,1.67
2017-01-02T08:40:23.641Z,1.62
2017-01-02T08:41:23.260Z,1.63
2017-01-02T08:42:23.262Z,1.49
2017-01-02T08:43:22.875Z,1.52
2017-01-02T08:44:23.686Z,1.42
2017-01-02T08:45:23.693Z,1.31
2017-01-02T08:46:23.306Z,1.3
2017-01-02T08:47:23.316Z,1.44
2017-01-02T08:48:23.736Z,1.5
2017-01-02T08:49:23.348Z,1.62
2017-01-02T08:50:22.952Z,1.55
2017-01-02T08:51:23.759Z,1.6
2017-01-02T08:52:23.372Z,1.71
2017-01-02T08:53:23.378Z,1.71
2017-01-02T08:54:23.393Z,1.68
2017-01-02T08:55:23.801Z,1.7
2017-01-02T08:56:23.044Z,1.63
2017-01-02T08:57:23.023Z,1.52
2017-01-02T08:58:23.433Z,1.48
2017-01-02T08:59:23.843Z,1.42
2017-01-02T09:00:23.458Z,1.34
2017-01-02T09:01:23.465Z,1.42
2017-01-02T09:02:23.481Z,1.38
2017-01-02T09:03:23.496Z,1.2
2017-01-02T09:04:23.497Z,1.26
2017-01-02T09:05:23.510Z,1.3
2017-01-02T09:06:23.934Z,1.5
2017-01-02T09:07:23.565Z,1.44
2017-01-02T09:08:23.159Z,1.48
2017-01-02T09:09:23.553Z,1.49
2017-01-02T09:10:23.971Z,1.45
2017-01-02T09:11:23.975Z,1.63
2017-01-02T09:12:23.188Z,1.59
2017-01-02T09:13:23.602Z,1.56
2017-01-02T09:14:23.604Z,1.59
2017-01-02T09:15:23.225Z,1.63
2017-01-02T09:16:24.024Z,1.62
2017-01-02T09:17:23.636Z,1.7
2017-01-02T09:18:23.647Z,1.7
2017-01-02T09:19:23.260Z,1.87
2017-01-02T09:20:24.071Z,1.7
2017-01-02T09:21:24.081Z,1.92
2017-01-02T09:22:23.292Z,1.95
2017-01-02T09:23:23.709Z,1.89
2017-01-02T09:24:23.712Z,1.81
2017-01-02T09:25:24.121Z,1.68
2017-01-02T09:26:23.734Z,1.78
2017-01-02T09:27:23.345Z,1.91
2017-01-02T09:28:23.758Z,1.91
2017-01-02T09:29:23.764Z,1.99
2017-01-02T09:30:23.379Z,2.02
2017-01-02T09:31:23.390Z,1.88
2017-01-02T09:32:23.829Z,1.97
2017-01-02T09:33:23.410Z,1.99
2017-01-02T09:34:23.822Z,2
2017-01-02T09:35:23.436Z,2
2017-01-02T09:36:24.243Z,2.06
2017-01-02T09:37:23.854Z,2.2
2017-01-02T09:38:23.872Z,2.24
2017-01-02T09:39:23.880Z,2.18
2017-01-02T09:40:23.492Z,2.25
2017-01-02T09:41:24.424Z,2.36
2017-01-02T09:42:23.909Z,2.29
2017-01-02T09:43:24.315Z,2.47
2017-01-02T09:44:23.932Z,2.38
2017-01-02T09:45:24.348Z,2.38
2017-01-02T09:46:23.553Z,2.49
2017-01-02T09:47:23.961Z,2.57
2017-01-02T09:48:23.573Z,2.56
2017-01-02T09:49:24.402Z,2.57
2017-01-02T09:50:23.597Z,2.5
2017-01-02T09:51:24.005Z,2.53
2017-01-02T09:52:24.021Z,2.57
2017-01-02T09:53:24.031Z,2.51
2017-01-02T09:54:24.071Z,2.65
2017-01-02T09:55:23.667Z,2.75
2017-01-02T09:56:24.209Z,2.71
2017-01-02T09:57:23.699Z,2.69
2017-01-02T09:58:24.087Z,2.85
2017-01-02T09:59:24.202Z,2.82
2017-01-02T10:00:24.110Z,2.82
2017-01-02T10:01:24.121Z,2.97
2017-01-02T10:02:24.130Z,2.95
2017-01-02T10:03:24.581Z,3.01
2017-01-02T10:04:23.765Z,3.04
2017-01-02T10:05:24.564Z,3.11
2017-01-02T10:06:24.608Z,3.01
2017-01-02T10:07:24.189Z,3.07
2017-01-02T10:08:24.204Z,3.14
2017-01-02T10:09:24.217Z,3.13
2017-01-02T10:10:23.836Z,3.1
2017-01-02T10:11:24.245Z,3.08
2017-01-02T10:12:24.247Z,2.93
2017-01-02T10:13:23.860Z,2.93
2017-01-02T10:14:24.340Z,2.97
2017-01-02T10:15:24.327Z,3.01
2017-01-02T10:16:24.294Z,3
2017-01-02T10:17:23.929Z,3.11
2017-01-02T10:18:23.918Z,3.18
2017-01-02T10:19:23.928Z,3.23
2017-01-02T10:20:24.341Z,3.31
2017-01-02T10:21:24.353Z,3.25
2017-01-02T10:22:23.962Z,3.32
2017-01-02T10:23:24.773Z,3.28
2017-01-02T10:24:24.807Z,3.37
2017-01-02T10:25:24.021Z,3.21
2017-01-02T10:26:24.412Z,3.32
2017-01-02T10:27:24.823Z,3.25
2017-01-02T10:28:24.042Z,3.32
2017-01-02T10:29:24.450Z,3.31
2017-01-02T10:30:24.059Z,3.31
2017-01-02T10:31:24.874Z,3.29
2017-01-02T10:32:24.887Z,3.34
2017-01-02T10:33:24.895Z,3.32
2017-01-02T10:34:24.508Z,3.36
2017-01-02T10:35:24.516Z,3.34
2017-01-02T10:36:24.530Z,3.48
2017-01-02T10:37:24.542Z,3.51
2017-01-02T10:38:24.954Z,3.6
2017-01-02T10:39:24.168Z,3.53
2017-01-02T10:40:24.580Z,3.55
2017-01-02T10:41:24.588Z,3.55
2017-01-02T10:42:24.603Z,3.63
2017-01-02T10:43:25.013Z,3.55
2017-01-02T10:44:25.023Z,3.63
2017-01-02T10:45:24.243Z,3.74
2017-01-02T10:46:24.251Z,3.73
2017-01-02T10:47:25.196Z,3.68
2017-01-02T10:48:25.076Z,3.6
2017-01-02T10:49:24.290Z,3.69
2017-01-02T10:50:24.698Z,3.78
2017-01-02T10:51:25.109Z,3.8
2017-01-02T10:52:24.327Z,3.76
2017-01-02T10:53:24.343Z,3.8
2017-01-02T10:54:25.145Z,3.8
2017-01-02T10:55:24.363Z,3.8
2017-01-02T10:56:25.165Z,3.77
2017-01-02T10:57:25.188Z,3.78
2017-01-02T10:58:24.795Z,3.81
2017-01-02T10:59:24.611Z,3.86
2017-01-02T11:00:25.229Z,3.77
2017-01-02T11:01:24.440Z,3.91
2017-01-02T11:02:24.843Z,3.94
2017-01-02T11:03:24.495Z,3.8
2017-01-02T11:04:25.321Z,3.77
2017-01-02T11:05:24.883Z,3.91
2017-01-02T11:06:24.522Z,3.99
2017-01-02T11:07:24.906Z,3.94
2017-01-02T11:08:24.918Z,3.92
2017-01-02T11:09:24.928Z,3.92
2017-01-02T11:10:25.341Z,3.96
2017-01-02T11:11:24.556Z,3.91
2017-01-02T11:12:24.975Z,3.81
2017-01-02T11:13:24.583Z,3.88
2017-01-02T11:14:24.993Z,3.88
2017-01-02T11:15:24.611Z,3.76
2017-01-02T11:16:25.018Z,3.8
2017-01-02T11:17:25.029Z,3.73
2017-01-02T11:18:24.645Z,3.74
2017-01-02T11:19:25.051Z,3.73
2017-01-02T11:20:25.068Z,3.68
2017-01-02T11:21:25.083Z,3.78
2017-01-02T11:22:25.090Z,3.76
2017-01-02T11:23:25.499Z,3.7
2017-01-02T11:24:24.715Z,3.73
2017-01-02T11:25:24.736Z,3.74
2017-01-02T11:26:24.741Z,3.8
2017-01-02T11:27:24.751Z,3.8
2017-01-02T11:28:25.566Z,3.91
2017-01-02T11:29:25.177Z,3.94
2017-01-02T11:30:25.589Z,3.98
2017-01-02T11:31:25.201Z,4.12
2017-01-02T11:32:25.220Z,4.1
2017-01-02T11:33:25.230Z,4.04
2017-01-02T11:34:24.844Z,4.19
2017-01-02T11:35:25.250Z,4.12
2017-01-02T11:36:25.264Z,4.22
2017-01-02T11:37:25.277Z,4.16
2017-01-02T11:38:25.288Z,4.37
2017-01-02T11:39:24.903Z,4.34
2017-01-02T11:40:25.317Z,4.37
2017-01-02T11:41:25.331Z,4.35
2017-01-02T11:42:25.734Z,4.41
2017-01-02T11:43:25.770Z,4.59
2017-01-02T11:44:25.763Z,4.6
2017-01-02T11:45:25.778Z,4.75
2017-01-02T11:46:25.788Z,4.71
2017-01-02T11:47:25.006Z,4.74
2017-01-02T11:48:25.813Z,4.71
2017-01-02T11:49:25.427Z,4.71
2017-01-02T11:50:25.042Z,4.75
2017-01-02T11:51:25.854Z,4.84
2017-01-02T11:52:25.472Z,4.9
2017-01-02T11:53:25.910Z,5.02
2017-01-02T11:54:25.508Z,5.02
2017-01-02T11:55:25.518Z,4.96
2017-01-02T11:56:25.528Z,5.04
2017-01-02T11:57:25.532Z,5.21
2017-01-02T11:58:25.141Z,5.2
2017-01-02T11:59:25.185Z,5.28
2017-01-02T12:00:25.572Z,5.35
2017-01-02T12:01:25.786Z,5.33
2017-01-02T12:02:26.000Z,5.38
2017-01-02T12:03:25.612Z,5.41
2017-01-02T12:04:25.626Z,5.43
2017-01-02T12:05:25.641Z,5.51
2017-01-02T12:06:26.050Z,5.53
2017-01-02T12:07:25.666Z,5.47
2017-01-02T12:08:26.095Z,5.53
2017-01-02T12:09:25.722Z,5.56
2017-01-02T12:10:25.304Z,5.59
2017-01-02T12:11:26.116Z,5.66
2017-01-02T12:12:25.727Z,5.66
2017-01-02T12:13:25.745Z,5.65
2017-01-02T12:14:25.783Z,5.76
2017-01-02T12:15:25.802Z,5.71
2017-01-02T12:16:25.787Z,5.72
2017-01-02T12:17:25.423Z,5.89
2017-01-02T12:18:25.814Z,5.89
2017-01-02T12:19:26.231Z,5.91
2017-01-02T12:20:26.238Z,5.93
2017-01-02T12:21:25.854Z,5.86
2017-01-02T12:22:25.866Z,5.86
2017-01-02T12:23:25.484Z,5.71
2017-01-02T12:24:25.894Z,5.75
2017-01-02T12:25:26.303Z,5.76
2017-01-02T12:26:26.320Z,5.86
2017-01-02T12:27:26.332Z,5.89
2017-01-02T12:28:26.348Z,5.94
2017-01-02T12:29:25.968Z,5.98
2017-01-02T12:30:25.578Z,6.09
2017-01-02T12:31:26.390Z,6.05
2017-01-02T12:32:26.404Z,6.07
2017-01-02T12:33:26.037Z,6.19
2017-01-02T12:34:26.483Z,6.12
2017-01-02T12:35:26.045Z,6.26
2017-01-02T12:36:26.060Z,6.24
2017-01-02T12:37:26.471Z,6.26
2017-01-02T12:38:26.487Z,6.24
2017-01-02T12:39:25.787Z,6.26
2017-01-02T12:40:26.118Z,6.26
2017-01-02T12:41:25.732Z,6.33
2017-01-02T12:42:25.743Z,6.41
2017-01-02T12:43:26.157Z,6.38
2017-01-02T12:44:26.175Z,6.33
2017-01-02T12:45:25.794Z,6.46
2017-01-02T12:46:25.801Z,6.44
2017-01-02T12:47:26.213Z,6.38
2017-01-02T12:48:26.644Z,6.42
2017-01-02T12:49:26.241Z,6.49
2017-01-02T12:50:26.261Z,6.44
2017-01-02T12:51:25.871Z,6.48
2017-01-02T12:52:26.682Z,6.49
2017-01-02T12:53:26.697Z,6.46
2017-01-02T12:54:26.712Z,6.48
2017-01-02T12:55:25.930Z,6.49
2017-01-02T12:56:25.941Z,6.54
2017-01-02T12:57:26.789Z,6.56
2017-01-02T12:58:26.767Z,6.62
2017-01-02T12:59:26.402Z,6.6
2017-01-02T13:00:26.421Z,6.66
2017-01-02T13:01:26.808Z,6.64
2017-01-02T13:02:26.433Z,6.66
2017-01-02T13:03:26.439Z,6.72
2017-01-02T13:04:26.056Z,6.74
2017-01-02T13:05:26.072Z,6.75
2017-01-02T13:06:26.083Z,6.84
2017-01-02T13:07:26.495Z,6.78
2017-01-02T13:08:26.909Z,6.66
2017-01-02T13:09:26.524Z,6.64
2017-01-02T13:10:26.538Z,6.69
2017-01-02T13:11:26.953Z,6.59
2017-01-02T13:12:26.569Z,6.64
2017-01-02T13:13:26.584Z,6.64
2017-01-02T13:14:26.197Z,6.72
2017-01-02T13:15:26.620Z,6.64
2017-01-02T13:16:26.230Z,6.7
2017-01-02T13:17:26.841Z,6.72
2017-01-02T13:18:27.057Z,6.57
2017-01-02T13:19:26.667Z,6.67
2017-01-02T13:20:26.283Z,6.54
2017-01-02T13:21:26.698Z,6.54